EGBB/BHX METAR and TAF weather

Enter ICAO airport designator
Station Type Date Time Source
EGBB METAR 2019/04/19 22:20 UTC NOAA

EGBB 192220Z VRB01KT CAVOK 13/06 Q1032


Station Type Date Time Source
EGBB Decoded METAR 2019/04/19 22:20 UTC NOAA

Birmingham / Airport, United Kingdom (EGBB) 52-27N 001-44W 0M
Apr 19, 2019 - 06:20 PM EDT / 2019.04.19 2220 UTC
Wind: Variable at 1 MPH (1 KT):0
Visibility: greater than 7 mile(s):0
Temperature: 55 F (13 C)
Dew Point: 42 F (6 C)
Relative Humidity: 62%
Pressure (altimeter): 30.47 in. Hg (1032 hPa)
ob: EGBB 192220Z VRB01KT CAVOK 13/06 Q1032
cycle: 22

Station Type Date Time Source
EGBB TAF 2019/04/19 18:06 UTC NOAA

TAF EGBB 191653Z 1918/2018 04006KT CAVOK
BECMG 2000/2003 8000 PROB30 2003/2008 4000 HZ
BECMG 2009/2012 CAVOK

Example: see airport list